MSC Clorinda — 3FDW7 — position and weather

sailwx.info

Track history (hours):
 
Tides and Currents Weather Stations Pressure Air Temp Water Temp Dewpoint Dewpoint Depression Visibility Wind Speed Wind Dir Waves Ship Positions

MSC Clorinda

Last reported at 2014-Oct-01 15:32 UTC. Time now 2014-Oct-01 16:23 UTC.
Position N 39°26' W 000°19'.

Length 366 m; draft 10 m.

Type: Ship (hazmat cat A). MMSI: 373233000.

Date/timePositionNaut miles runAvg speedWind from/ knotsBaromVisibWave heightAir tempDewpointWater temp
2014-Oct-01 15:32N 39°26' W 000°19'0 0.0
2014-Oct-01 14:32N 39°26' W 000°19'0 0.0
2014-Oct-01 13:32N 39°26' W 000°19'0 0.0
2014-Oct-01 12:29N 39°26' W 000°19'0 0.0
2014-Oct-01 11:32N 39°26' W 000°19'0 0.0
2014-Oct-01 10:32N 39°26' W 000°19'0 0.0
2014-Oct-01 09:32N 39°26' W 000°19'0 0.0
2014-Oct-01 08:32N 39°26' W 000°19'0 0.0
2014-Oct-01 07:29N 39°26' W 000°19'0 0.0
2014-Oct-01 06:28N 39°26' W 000°19'0 0.0
2014-Oct-01 05:31N 39°26' W 000°19'0 0.0
2014-Oct-01 04:32N 39°26' W 000°19'0 0.0
2014-Oct-01 03:32N 39°26' W 000°19'0 0.0
2014-Oct-01 02:32N 39°26' W 000°19'0 0.1
2014-Oct-01 01:32N 39°26' W 000°19'3 3.4
2014-Oct-01 00:33N 39°25' W 000°15'1 1.1
2014-Sep-30 23:33N 39°26' W 000°14'1 1.2
2014-Sep-30 22:33N 39°27' W 000°13'5 5.0
2014-Sep-30 21:34N 39°31' W 000°09'5418.0
2014-Sep-30 18:33N 40°08' E 000°43'1818.0
2014-Sep-30 17:33N 40°20' E 001°00'1818.6
2014-Sep-30 16:33N 40°32' E 001°18'1817.6
2014-Sep-30 15:33N 40°45' E 001°34'1818.1
2014-Sep-30 14:33N 40°58' E 001°50'1818.2
2014-Sep-30 13:34N 41°12' E 002°06'7 1.7
2014-Sep-30 09:31N 41°18' E 002°09'0 0.0
2014-Sep-30 06:13N 41°18' E 002°09'0 0.0
2014-Sep-30 01:07N 41°18' E 002°09'0 0.0
2014-Sep-30 00:25N 41°18' E 002°09'1 0.3
2014-Sep-29 22:30N 41°19' E 002°09'4 4.5
2014-Sep-29 21:33N 41°16' E 002°13'1412.8
2014-Sep-29 20:28N 41°16' E 002°32'1313.4
2014-Sep-29 19:31N 41°23' E 002°46'1313.5
2014-Sep-29 18:33N 41°31' E 003°00'1414.3
2014-Sep-29 17:33N 41°38' E 003°16'1814.5
2014-Sep-29 16:20N 41°48' E 003°36'1113.8
2014-Sep-29 15:33N 41°54' E 003°48'1514.6
2014-Sep-29 14:33N 42°04' E 004°03'1714.3
2014-Sep-29 13:20N 42°18' E 004°15'1114.1
2014-Sep-29 12:32N 42°28' E 004°23'1414.2
2014-Sep-29 11:32N 42°40' E 004°34'1714.7
2014-Sep-29 10:23N 42°54' E 004°46'1414.3
2014-Sep-29 09:26N 43°06' E 004°56'1112.9
2014-Sep-29 08:33N 43°17' E 004°59'10 9.7
2014-Sep-29 07:33N 43°25' E 004°51'1 1.0
2014-Sep-29 06:30N 43°25' E 004°50'0 0.0
2014-Sep-29 05:33N 43°25' E 004°50'0 0.0
2014-Sep-29 04:33N 43°25' E 004°50'0 0.0
2014-Sep-29 03:33N 43°25' E 004°50'0 0.0
2014-Sep-29 02:33N 43°25' E 004°50'0 0.0
2014-Sep-29 01:33N 43°25' E 004°50'0 0.0
2014-Sep-29 00:33N 43°25' E 004°50'0 0.0
2014-Sep-28 23:33N 43°25' E 004°50'0 0.0
2014-Sep-28 22:33N 43°25' E 004°50'0 0.0
2014-Sep-28 21:33N 43°25' E 004°50'0 0.0
2014-Sep-28 20:33N 43°25' E 004°50'0 0.0
2014-Sep-28 19:33N 43°25' E 004°50'0 0.0
2014-Sep-28 18:33N 43°25' E 004°50'0 0.0
2014-Sep-28 17:33N 43°25' E 004°50'0 0.0
2014-Sep-28 16:33N 43°25' E 004°50'0 0.0
2014-Sep-28 15:30N 43°25' E 004°50'0 0.0
2014-Sep-28 14:33N 43°25' E 004°50'0 0.0
2014-Sep-28 13:33N 43°25' E 004°50'0 0.0
2014-Sep-28 12:33N 43°25' E 004°50'0 0.0
2014-Sep-28 11:33N 43°25' E 004°50'0 0.0
2014-Sep-28 10:30N 43°25' E 004°50'0 0.0
2014-Sep-28 09:33N 43°25' E 004°50'0 0.0
2014-Sep-28 08:33N 43°25' E 004°50'5 5.0
2014-Sep-28 07:33N 43°23' E 004°57'1110.7
2014-Sep-28 06:33N 43°13' E 005°02'1514.6
2014-Sep-28 05:33N 43°03' E 005°17'1515.1
2014-Sep-28 04:33N 42°54' E 005°33'1414.3
2014-Sep-28 03:33N 42°47' E 005°50'1515.2
2014-Sep-28 02:33N 42°47' E 006°11'1515.2
2014-Sep-28 01:33N 42°47' E 006°31'1616.0
2014-Sep-28 00:33N 42°54' E 006°51'1615.7
2014-Sep-27 23:33N 43°01' E 007°10'1615.5
2014-Sep-27 22:33N 43°08' E 007°30'1515.3
2014-Sep-27 21:33N 43°14' E 007°49'1515.3
2014-Sep-27 20:33N 43°21' E 008°08'1615.9
2014-Sep-27 19:33N 43°28' E 008°27'1515.0
2014-Sep-27 18:34N 43°35' E 008°45'1514.7
2014-Sep-27 17:34N 43°42' E 009°03'1414.4
2014-Sep-27 16:33N 43°48' E 009°21'1414.1
2014-Sep-27 15:33N 43°55' E 009°38'1312.6
2014-Sep-27 14:33N 44°03' E 009°52'4 3.6
2014-Sep-27 13:32N 44°06' E 009°51'0 0.0
2014-Sep-27 12:32N 44°06' E 009°51'0 0.0
2014-Sep-27 11:33N 44°06' E 009°51'0 0.0
2014-Sep-27 10:33N 44°06' E 009°51'0 0.0
2014-Sep-27 09:33N 44°06' E 009°51'0 0.0
2014-Sep-27 08:33N 44°06' E 009°51'0 0.0
2014-Sep-27 07:33N 44°06' E 009°51'0 0.0
2014-Sep-27 06:33N 44°06' E 009°51'0 0.0
2014-Sep-27 05:33N 44°06' E 009°51'0 0.0
2014-Sep-27 04:33N 44°06' E 009°51'0 0.0
2014-Sep-27 03:33N 44°06' E 009°51'0 0.0
2014-Sep-27 02:33N 44°06' E 009°51'0 0.0
2014-Sep-27 01:33N 44°06' E 009°51'0 0.0
2014-Sep-27 00:33N 44°06' E 009°51'0 0.0
2014-Sep-26 23:33N 44°06' E 009°51'0 0.0
2014-Sep-26 22:33N 44°06' E 009°51'0 0.0
2014-Sep-26 21:33N 44°06' E 009°51'0 0.0
2014-Sep-26 20:33N 44°06' E 009°51'0 0.0
2014-Sep-26 19:33N 44°06' E 009°51'0 0.0
2014-Sep-26 18:33N 44°06' E 009°51'0 0.0
2014-Sep-26 17:33N 44°06' E 009°51'0 0.0
2014-Sep-26 16:33N 44°06' E 009°51'3 3.0
2014-Sep-26 15:33N 44°03' E 009°52'9 9.2
2014-Sep-26 14:33N 43°55' E 009°57'1616.3
2014-Sep-26 13:33N 43°47' E 009°37'1616.4
2014-Sep-26 12:33N 43°38' E 009°18'1515.1
2014-Sep-26 11:33N 43°30' E 009°01'1515.0
2014-Sep-26 10:33N 43°22' E 008°43'6415.3
2014-Sep-26 06:23N 42°49' E 007°28'1315.9
2014-Sep-26 05:33N 42°42' E 007°13'4017.1
2014-Sep-26 03:14N 42°21' E 006°27'1217.0
2014-Sep-26 02:33N 42°15' E 006°14'1716.9
2014-Sep-26 01:33N 42°06' E 005°54'1716.7
2014-Sep-26 00:33N 41°58' E 005°35'6816.7
2014-Sep-25 20:30N 41°22' E 004°18'1413.2
2014-Sep-25 19:28N 41°15' E 004°02'1615.9
2014-Sep-25 18:28N 41°07' E 003°44'1616.0
2014-Sep-25 17:28N 40°59' E 003°26'1516.3
2014-Sep-25 16:33N 40°51' E 003°09'1716.6
2014-Sep-25 15:34N 40°42' E 002°50'1716.7
2014-Sep-25 14:33N 40°33' E 002°31'1716.8
2014-Sep-25 13:33N 40°25' E 002°13'1716.8
2014-Sep-25 12:33N 40°16' E 001°54'1717.1
2014-Sep-25 11:33N 40°07' E 001°35'1716.6
2014-Sep-25 10:33N 39°58' E 001°16'1616.3
2014-Sep-25 09:33N 39°50' E 000°58'4916.3
2014-Sep-25 06:33N 39°28' E 000°01'1515.0
2014-Sep-25 05:33N 39°26' W 000°18'1 1.1
2014-Sep-25 04:31N 39°26' W 000°20'0 0.0
2014-Sep-25 03:31N 39°26' W 000°20'0 0.0
2014-Sep-25 02:31N 39°26' W 000°20'0 0.0
2014-Sep-25 01:31N 39°26' W 000°20'0 0.0
2014-Sep-25 00:31N 39°26' W 000°20'0 0.0
2014-Sep-24 23:31N 39°26' W 000°20'0 0.0
2014-Sep-24 22:31N 39°26' W 000°20'0 0.0
2014-Sep-24 21:31N 39°26' W 000°20'0 0.0
2014-Sep-24 20:22N 39°26' W 000°20'0 0.0
2014-Sep-24 19:31N 39°26' W 000°20'0 0.0
2014-Sep-24 18:31N 39°26' W 000°20'0 0.0
2014-Sep-24 17:31N 39°26' W 000°20'0 0.0
2014-Sep-24 16:31N 39°26' W 000°20'0 0.0
2014-Sep-24 15:31N 39°26' W 000°20'0 0.0
2014-Sep-24 14:31N 39°26' W 000°20'0 0.0
2014-Sep-24 13:31N 39°26' W 000°20'0 0.0
2014-Sep-24 12:31N 39°26' W 000°20'0 0.0
2014-Sep-24 11:31N 39°26' W 000°20'0 0.0
2014-Sep-24 10:31N 39°26' W 000°20'0 0.0
2014-Sep-24 09:31N 39°26' W 000°20'0 0.0
2014-Sep-24 08:31N 39°26' W 000°20'0 0.0
2014-Sep-24 07:31N 39°26' W 000°20'0 0.0
2014-Sep-24 06:28N 39°26' W 000°20'0 0.0
2014-Sep-24 05:31N 39°26' W 000°20'0 0.0
2014-Sep-24 04:33N 39°26' W 000°20'6 6.0
2014-Sep-24 03:33N 39°25' W 000°12'7214.3
2014-Sep-23 22:31N 39°13' E 001°20'1414.8
2014-Sep-23 21:33N 39°11' E 001°38'1514.8
2014-Sep-23 20:34N 39°08' E 001°57'1514.7
2014-Sep-23 19:33N 39°06' E 002°16'1514.7
2014-Sep-23 18:33N 39°03' E 002°34'1615.6
2014-Sep-23 17:33N 39°01' E 002°54'1616.4
2014-Sep-23 16:33N 38°59' E 003°15'1616.2
2014-Sep-23 15:33N 38°58' E 003°36'1616.0
2014-Sep-23 14:33N 38°57' E 003°57'20116.6
2014-Sep-23 02:28N 38°42' E 008°14'1516.8
2014-Sep-23 01:33N 38°41' E 008°33'1716.6
2014-Sep-23 00:32N 38°40' E 008°55'1716.9
2014-Sep-22 23:33N 38°39' E 009°16'1716.8
2014-Sep-22 22:34N 38°38' E 009°37'1816.6
2014-Sep-22 21:27N 38°36' E 010°01'1516.6
2014-Sep-22 20:33N 38°35' E 010°20'1717.0
2014-Sep-22 19:33N 38°34' E 010°42'1717.1
2014-Sep-22 18:33N 38°33' E 011°03'2117.1
2014-Sep-22 17:18N 38°31' E 011°31'1416.9
2014-Sep-22 16:28N 38°30' E 011°49'2216.5
2014-Sep-22 15:09N 38°28' E 012°16'1216.1
2014-Sep-22 14:26N 38°28' E 012°31'1416.1
2014-Sep-22 13:33N 38°27' E 012°49'1616.4
2014-Sep-22 12:33N 38°25' E 013°10'1716.7
2014-Sep-22 11:33N 38°24' E 013°31'1716.8
2014-Sep-22 10:33N 38°23' E 013°52'1716.7
2014-Sep-22 09:34N 38°22' E 014°14'1717.0
2014-Sep-22 08:33N 38°20' E 014°35'  
Track history (hours):
 
Tides and Currents Weather Stations Pressure Air Temp Water Temp Dewpoint Dewpoint Depression Visibility Wind Speed Wind Dir Waves Ship Positions

MSC Clorinda

Last reported at 2014-Oct-01 15:32 UTC. Time now 2014-Oct-01 16:23 UTC.
Position N 39°26' W 000°19'.

Length 366 m; draft 10 m.

Type: Ship (hazmat cat A). MMSI: 373233000.

Date/timePositionNaut miles runAvg speedWind from/ knotsBaromVisibWave heightAir tempDewpointWater temp
2014-Oct-01 15:32N 39°26' W 000°19'0 0.0
2014-Oct-01 14:32N 39°26' W 000°19'0 0.0
2014-Oct-01 13:32N 39°26' W 000°19'0 0.0
2014-Oct-01 12:29N 39°26' W 000°19'0 0.0
2014-Oct-01 11:32N 39°26' W 000°19'0 0.0
2014-Oct-01 10:32N 39°26' W 000°19'0 0.0
2014-Oct-01 09:32N 39°26' W 000°19'0 0.0
2014-Oct-01 08:32N 39°26' W 000°19'0 0.0
2014-Oct-01 07:29N 39°26' W 000°19'0 0.0
2014-Oct-01 06:28N 39°26' W 000°19'0 0.0
2014-Oct-01 05:31N 39°26' W 000°19'0 0.0
2014-Oct-01 04:32N 39°26' W 000°19'0 0.0
2014-Oct-01 03:32N 39°26' W 000°19'0 0.0
2014-Oct-01 02:32N 39°26' W 000°19'0 0.1
2014-Oct-01 01:32N 39°26' W 000°19'3 3.4
2014-Oct-01 00:33N 39°25' W 000°15'1 1.1
2014-Sep-30 23:33N 39°26' W 000°14'1 1.2
2014-Sep-30 22:33N 39°27' W 000°13'5 5.0
2014-Sep-30 21:34N 39°31' W 000°09'5418.0
2014-Sep-30 18:33N 40°08' E 000°43'1818.0
2014-Sep-30 17:33N 40°20' E 001°00'1818.6
2014-Sep-30 16:33N 40°32' E 001°18'1817.6
2014-Sep-30 15:33N 40°45' E 001°34'1818.1
2014-Sep-30 14:33N 40°58' E 001°50'1818.2
2014-Sep-30 13:34N 41°12' E 002°06'7 1.7
2014-Sep-30 09:31N 41°18' E 002°09'0 0.0
2014-Sep-30 06:13N 41°18' E 002°09'0 0.0
2014-Sep-30 01:07N 41°18' E 002°09'0 0.0
2014-Sep-30 00:25N 41°18' E 002°09'1 0.3
2014-Sep-29 22:30N 41°19' E 002°09'4 4.5
2014-Sep-29 21:33N 41°16' E 002°13'1412.8
2014-Sep-29 20:28N 41°16' E 002°32'1313.4
2014-Sep-29 19:31N 41°23' E 002°46'1313.5
2014-Sep-29 18:33N 41°31' E 003°00'1414.3
2014-Sep-29 17:33N 41°38' E 003°16'1814.5
2014-Sep-29 16:20N 41°48' E 003°36'1113.8
2014-Sep-29 15:33N 41°54' E 003°48'1514.6
2014-Sep-29 14:33N 42°04' E 004°03'1714.3
2014-Sep-29 13:20N 42°18' E 004°15'1114.1
2014-Sep-29 12:32N 42°28' E 004°23'1414.2
2014-Sep-29 11:32N 42°40' E 004°34'1714.7
2014-Sep-29 10:23N 42°54' E 004°46'1414.3
2014-Sep-29 09:26N 43°06' E 004°56'1112.9
2014-Sep-29 08:33N 43°17' E 004°59'10 9.7
2014-Sep-29 07:33N 43°25' E 004°51'1 1.0
2014-Sep-29 06:30N 43°25' E 004°50'0 0.0
2014-Sep-29 05:33N 43°25' E 004°50'0 0.0
2014-Sep-29 04:33N 43°25' E 004°50'0 0.0
2014-Sep-29 03:33N 43°25' E 004°50'0 0.0
2014-Sep-29 02:33N 43°25' E 004°50'0 0.0
2014-Sep-29 01:33N 43°25' E 004°50'0 0.0
2014-Sep-29 00:33N 43°25' E 004°50'0 0.0
2014-Sep-28 23:33N 43°25' E 004°50'0 0.0
2014-Sep-28 22:33N 43°25' E 004°50'0 0.0
2014-Sep-28 21:33N 43°25' E 004°50'0 0.0
2014-Sep-28 20:33N 43°25' E 004°50'0 0.0
2014-Sep-28 19:33N 43°25' E 004°50'0 0.0
2014-Sep-28 18:33N 43°25' E 004°50'0 0.0
2014-Sep-28 17:33N 43°25' E 004°50'0 0.0
2014-Sep-28 16:33N 43°25' E 004°50'0 0.0
2014-Sep-28 15:30N 43°25' E 004°50'0 0.0
2014-Sep-28 14:33N 43°25' E 004°50'0 0.0
2014-Sep-28 13:33N 43°25' E 004°50'0 0.0
2014-Sep-28 12:33N 43°25' E 004°50'0 0.0
2014-Sep-28 11:33N 43°25' E 004°50'0 0.0
2014-Sep-28 10:30N 43°25' E 004°50'0 0.0
2014-Sep-28 09:33N 43°25' E 004°50'0 0.0
2014-Sep-28 08:33N 43°25' E 004°50'5 5.0
2014-Sep-28 07:33N 43°23' E 004°57'1110.7
2014-Sep-28 06:33N 43°13' E 005°02'1514.6
2014-Sep-28 05:33N 43°03' E 005°17'1515.1
2014-Sep-28 04:33N 42°54' E 005°33'1414.3
2014-Sep-28 03:33N 42°47' E 005°50'1515.2
2014-Sep-28 02:33N 42°47' E 006°11'1515.2
2014-Sep-28 01:33N 42°47' E 006°31'1616.0
2014-Sep-28 00:33N 42°54' E 006°51'1615.7
2014-Sep-27 23:33N 43°01' E 007°10'1615.5
2014-Sep-27 22:33N 43°08' E 007°30'1515.3
2014-Sep-27 21:33N 43°14' E 007°49'1515.3
2014-Sep-27 20:33N 43°21' E 008°08'1615.9
2014-Sep-27 19:33N 43°28' E 008°27'1515.0
2014-Sep-27 18:34N 43°35' E 008°45'1514.7
2014-Sep-27 17:34N 43°42' E 009°03'1414.4
2014-Sep-27 16:33N 43°48' E 009°21'1414.1
2014-Sep-27 15:33N 43°55' E 009°38'1312.6
2014-Sep-27 14:33N 44°03' E 009°52'4 3.6
2014-Sep-27 13:32N 44°06' E 009°51'0 0.0
2014-Sep-27 12:32N 44°06' E 009°51'0 0.0
2014-Sep-27 11:33N 44°06' E 009°51'0 0.0
2014-Sep-27 10:33N 44°06' E 009°51'0 0.0
2014-Sep-27 09:33N 44°06' E 009°51'0 0.0
2014-Sep-27 08:33N 44°06' E 009°51'0 0.0
2014-Sep-27 07:33N 44°06' E 009°51'0 0.0
2014-Sep-27 06:33N 44°06' E 009°51'0 0.0
2014-Sep-27 05:33N 44°06' E 009°51'0 0.0
2014-Sep-27 04:33N 44°06' E 009°51'0 0.0
2014-Sep-27 03:33N 44°06' E 009°51'0 0.0
2014-Sep-27 02:33N 44°06' E 009°51'0 0.0
2014-Sep-27 01:33N 44°06' E 009°51'0 0.0
2014-Sep-27 00:33N 44°06' E 009°51'0 0.0
2014-Sep-26 23:33N 44°06' E 009°51'0 0.0
2014-Sep-26 22:33N 44°06' E 009°51'0 0.0
2014-Sep-26 21:33N 44°06' E 009°51'0 0.0
2014-Sep-26 20:33N 44°06' E 009°51'0 0.0
2014-Sep-26 19:33N 44°06' E 009°51'0 0.0
2014-Sep-26 18:33N 44°06' E 009°51'0 0.0
2014-Sep-26 17:33N 44°06' E 009°51'0 0.0
2014-Sep-26 16:33N 44°06' E 009°51'3 3.0
2014-Sep-26 15:33N 44°03' E 009°52'9 9.2
2014-Sep-26 14:33N 43°55' E 009°57'1616.3
2014-Sep-26 13:33N 43°47' E 009°37'1616.4
2014-Sep-26 12:33N 43°38' E 009°18'1515.1
2014-Sep-26 11:33N 43°30' E 009°01'1515.0
2014-Sep-26 10:33N 43°22' E 008°43'6415.3
2014-Sep-26 06:23N 42°49' E 007°28'1315.9
2014-Sep-26 05:33N 42°42' E 007°13'4017.1
2014-Sep-26 03:14N 42°21' E 006°27'1217.0
2014-Sep-26 02:33N 42°15' E 006°14'1716.9
2014-Sep-26 01:33N 42°06' E 005°54'1716.7
2014-Sep-26 00:33N 41°58' E 005°35'6816.7
2014-Sep-25 20:30N 41°22' E 004°18'1413.2
2014-Sep-25 19:28N 41°15' E 004°02'1615.9
2014-Sep-25 18:28N 41°07' E 003°44'1616.0
2014-Sep-25 17:28N 40°59' E 003°26'1516.3
2014-Sep-25 16:33N 40°51' E 003°09'1716.6
2014-Sep-25 15:34N 40°42' E 002°50'1716.7
2014-Sep-25 14:33N 40°33' E 002°31'1716.8
2014-Sep-25 13:33N 40°25' E 002°13'1716.8
2014-Sep-25 12:33N 40°16' E 001°54'1717.1
2014-Sep-25 11:33N 40°07' E 001°35'1716.6
2014-Sep-25 10:33N 39°58' E 001°16'1616.3
2014-Sep-25 09:33N 39°50' E 000°58'4916.3
2014-Sep-25 06:33N 39°28' E 000°01'1515.0
2014-Sep-25 05:33N 39°26' W 000°18'1 1.1
2014-Sep-25 04:31N 39°26' W 000°20'0 0.0
2014-Sep-25 03:31N 39°26' W 000°20'0 0.0
2014-Sep-25 02:31N 39°26' W 000°20'0 0.0
2014-Sep-25 01:31N 39°26' W 000°20'0 0.0
2014-Sep-25 00:31N 39°26' W 000°20'0 0.0
2014-Sep-24 23:31N 39°26' W 000°20'0 0.0
2014-Sep-24 22:31N 39°26' W 000°20'0 0.0
2014-Sep-24 21:31N 39°26' W 000°20'0 0.0
2014-Sep-24 20:22N 39°26' W 000°20'0 0.0
2014-Sep-24 19:31N 39°26' W 000°20'0 0.0
2014-Sep-24 18:31N 39°26' W 000°20'0 0.0
2014-Sep-24 17:31N 39°26' W 000°20'0 0.0
2014-Sep-24 16:31N 39°26' W 000°20'0 0.0
2014-Sep-24 15:31N 39°26' W 000°20'0 0.0
2014-Sep-24 14:31N 39°26' W 000°20'0 0.0
2014-Sep-24 13:31N 39°26' W 000°20'0 0.0
2014-Sep-24 12:31N 39°26' W 000°20'0 0.0
2014-Sep-24 11:31N 39°26' W 000°20'0 0.0
2014-Sep-24 10:31N 39°26' W 000°20'0 0.0
2014-Sep-24 09:31N 39°26' W 000°20'0 0.0
2014-Sep-24 08:31N 39°26' W 000°20'0 0.0
2014-Sep-24 07:31N 39°26' W 000°20'0 0.0
2014-Sep-24 06:28N 39°26' W 000°20'0 0.0
2014-Sep-24 05:31N 39°26' W 000°20'0 0.0
2014-Sep-24 04:33N 39°26' W 000°20'6 6.0
2014-Sep-24 03:33N 39°25' W 000°12'7214.3
2014-Sep-23 22:31N 39°13' E 001°20'1414.8
2014-Sep-23 21:33N 39°11' E 001°38'1514.8
2014-Sep-23 20:34N 39°08' E 001°57'1514.7
2014-Sep-23 19:33N 39°06' E 002°16'1514.7
2014-Sep-23 18:33N 39°03' E 002°34'1615.6
2014-Sep-23 17:33N 39°01' E 002°54'1616.4
2014-Sep-23 16:33N 38°59' E 003°15'1616.2
2014-Sep-23 15:33N 38°58' E 003°36'1616.0
2014-Sep-23 14:33N 38°57' E 003°57'20116.6
2014-Sep-23 02:28N 38°42' E 008°14'1516.8
2014-Sep-23 01:33N 38°41' E 008°33'1716.6
2014-Sep-23 00:32N 38°40' E 008°55'1716.9
2014-Sep-22 23:33N 38°39' E 009°16'1716.8
2014-Sep-22 22:34N 38°38' E 009°37'1816.6
2014-Sep-22 21:27N 38°36' E 010°01'1516.6
2014-Sep-22 20:33N 38°35' E 010°20'1717.0
2014-Sep-22 19:33N 38°34' E 010°42'1717.1
2014-Sep-22 18:33N 38°33' E 011°03'2117.1
2014-Sep-22 17:18N 38°31' E 011°31'1416.9
2014-Sep-22 16:28N 38°30' E 011°49'2216.5
2014-Sep-22 15:09N 38°28' E 012°16'1216.1
2014-Sep-22 14:26N 38°28' E 012°31'1416.1
2014-Sep-22 13:33N 38°27' E 012°49'1616.4
2014-Sep-22 12:33N 38°25' E 013°10'1716.7
2014-Sep-22 11:33N 38°24' E 013°31'1716.8
2014-Sep-22 10:33N 38°23' E 013°52'1716.7
2014-Sep-22 09:34N 38°22' E 014°14'1717.0
2014-Sep-22 08:33N 38°20' E 014°35'  

Dump ship's entire track history